sensor_id;sensor_type;location;lat;lon;timestamp;pressure;altitude;pressure_sealevel;temperature;humidity
22830;BME280;11581;51.250;6.778;2022-12-07T00:01:30;101328.69;;;8.53;71.25
22830;BME280;11581;51.250;6.778;2022-12-07T00:03:59;101338.97;;;8.57;71.35
22830;BME280;11581;51.250;6.778;2022-12-07T00:06:31;101338.22;;;8.55;71.57
22830;BME280;11581;51.250;6.778;2022-12-07T00:08:58;101328.56;;;8.54;71.87
22830;BME280;11581;51.250;6.778;2022-12-07T00:11:27;101334.84;;;8.53;71.66
22830;BME280;11581;51.250;6.778;2022-12-07T00:13:56;101344.63;;;8.53;71.80
22830;BME280;11581;51.250;6.778;2022-12-07T00:16:26;101324.09;;;8.44;72.14
22830;BME280;11581;51.250;6.778;2022-12-07T00:18:53;101339.31;;;8.53;72.01
22830;BME280;11581;51.250;6.778;2022-12-07T00:21:22;101324.09;;;8.44;72.28
22830;BME280;11581;51.250;6.778;2022-12-07T00:23:50;101341.00;;;8.54;72.20
22830;BME280;11581;51.250;6.778;2022-12-07T00:26:19;101341.00;;;8.54;72.15
22830;BME280;11581;51.250;6.778;2022-12-07T00:28:46;101336.53;;;8.54;72.28
22830;BME280;11581;51.250;6.778;2022-12-07T00:31:18;101337.38;;;8.55;72.16
22830;BME280;11581;51.250;6.778;2022-12-07T00:33:45;101270.78;;;8.12;72.38
22830;BME280;11581;51.250;6.778;2022-12-07T00:36:13;101295.34;;;8.27;72.53
22830;BME280;11581;51.250;6.778;2022-12-07T00:38:42;101334.59;;;8.56;72.39
22830;BME280;11581;51.250;6.778;2022-12-07T00:41:11;101329.16;;;8.58;72.51
22830;BME280;11581;51.250;6.778;2022-12-07T00:43:38;101327.22;;;8.60;72.63
22830;BME280;11581;51.250;6.778;2022-12-07T00:46:05;101327.13;;;8.61;72.81
22830;BME280;11581;51.250;6.778;2022-12-07T00:48:33;101329.66;;;8.63;72.52
22830;BME280;11581;51.250;6.778;2022-12-07T00:51:01;101322.41;;;8.65;72.47
22830;BME280;11581;51.250;6.778;2022-12-07T00:53:29;101356.00;;;8.66;72.51
22830;BME280;11581;51.250;6.778;2022-12-07T00:55:56;101320.47;;;8.67;72.54
22830;BME280;11581;51.250;6.778;2022-12-07T00:58:23;101307.19;;;8.56;72.50
22830;BME280;11581;51.250;6.778;2022-12-07T01:00:50;101312.72;;;8.64;72.51
22830;BME280;11581;51.250;6.778;2022-12-07T01:03:17;101321.91;;;8.71;72.50
22830;BME280;11581;51.250;6.778;2022-12-07T01:05:52;101282.75;;;8.51;72.07
22830;BME280;11581;51.250;6.778;2022-12-07T01:08:19;101295.81;;;8.65;72.07
22830;BME280;11581;51.250;6.778;2022-12-07T01:10:48;101293.53;;;8.60;72.29
22830;BME280;11581;51.250;6.778;2022-12-07T01:13:17;101275.13;;;8.46;72.00
22830;BME280;11581;51.250;6.778;2022-12-07T01:15:44;101317.56;;;8.70;71.97
22830;BME280;11581;51.250;6.778;2022-12-07T01:18:11;101325.16;;;8.74;72.22
22830;BME280;11581;51.250;6.778;2022-12-07T01:20:38;101328.69;;;8.75;72.20
22830;BME280;11581;51.250;6.778;2022-12-07T01:23:06;101320.59;;;8.76;72.14
22830;BME280;11581;51.250;6.778;2022-12-07T01:25:33;101319.50;;;8.79;72.41
22830;BME280;11581;51.250;6.778;2022-12-07T01:28:00;101323.81;;;8.80;72.22
22830;BME280;11581;51.250;6.778;2022-12-07T01:30:27;101307.53;;;8.73;71.97
22830;BME280;11581;51.250;6.778;2022-12-07T01:32:54;101306.44;;;8.76;72.15
22830;BME280;11581;51.250;6.778;2022-12-07T01:35:21;101297.00;;;8.72;72.08
22830;BME280;11581;51.250;6.778;2022-12-07T01:37:48;101309.44;;;8.82;72.11
22830;BME280;11581;51.250;6.778;2022-12-07T01:40:17;101317.53;;;8.81;71.83
22830;BME280;11581;51.250;6.778;2022-12-07T01:42:44;101310.41;;;8.81;71.71
22830;BME280;11581;51.250;6.778;2022-12-07T01:45:38;101317.69;;;8.79;71.51
22830;BME280;11581;51.250;6.778;2022-12-07T01:48:07;101247.59;;;8.36;71.65
22830;BME280;11581;51.250;6.778;2022-12-07T01:50:36;101240.84;;;8.32;71.60
22830;BME280;11581;51.250;6.778;2022-12-07T01:53:06;101314.16;;;8.79;71.74
22830;BME280;11581;51.250;6.778;2022-12-07T01:55:41;101299.69;;;8.72;71.76
22830;BME280;11581;51.250;6.778;2022-12-07T01:58:10;101316.84;;;8.79;71.57
22830;BME280;11581;51.250;6.778;2022-12-07T02:00:38;101312.50;;;8.78;71.69
22830;BME280;11581;51.250;6.778;2022-12-07T02:03:08;101317.81;;;8.78;71.66
22830;BME280;11581;51.250;6.778;2022-12-07T02:05:37;101293.16;;;8.65;71.63
22830;BME280;11581;51.250;6.778;2022-12-07T02:08:05;101312.50;;;8.78;71.75
22830;BME280;11581;51.250;6.778;2022-12-07T02:10:32;101274.91;;;8.60;71.61
22830;BME280;11581;51.250;6.778;2022-12-07T02:13:03;101290.22;;;8.68;71.51
22830;BME280;11581;51.250;6.778;2022-12-07T02:15:40;101304.88;;;8.73;71.20
22830;BME280;11581;51.250;6.778;2022-12-07T02:18:16;101297.00;;;8.72;71.46
22830;BME280;11581;51.250;6.778;2022-12-07T02:20:55;101295.31;;;8.71;71.17
22830;BME280;11581;51.250;6.778;2022-12-07T02:23:40;101296.41;;;8.68;71.28
22830;BME280;11581;51.250;6.778;2022-12-07T02:26:42;101282.28;;;8.57;71.23
22830;BME280;11581;51.250;6.778;2022-12-07T02:29:20;101300.28;;;8.64;71.17
22830;BME280;11581;51.250;6.778;2022-12-07T02:31:56;101292.16;;;8.55;71.15
22830;BME280;11581;51.250;6.778;2022-12-07T02:34:32;101304.97;;;8.61;71.42
22830;BME280;11581;51.250;6.778;2022-12-07T02:37:08;101301.97;;;8.54;71.55
22830;BME280;11581;51.250;6.778;2022-12-07T02:39:37;101298.97;;;8.59;71.49
22830;BME280;11581;51.250;6.778;2022-12-07T02:42:11;101315.03;;;8.57;71.35
22830;BME280;11581;51.250;6.778;2022-12-07T02:44:41;101270.19;;;8.31;71.18
22830;BME280;11581;51.250;6.778;2022-12-07T02:47:10;101285.44;;;8.40;71.48
22830;BME280;11581;51.250;6.778;2022-12-07T02:49:40;101224.50;;;8.04;71.52
22830;BME280;11581;51.250;6.778;2022-12-07T02:52:07;101285.66;;;8.37;71.64
22830;BME280;11581;51.250;6.778;2022-12-07T02:54:34;101124.28;;;7.40;71.57
22830;BME280;11581;51.250;6.778;2022-12-07T02:57:10;101305.34;;;8.45;71.63
22830;BME280;11581;51.250;6.778;2022-12-07T02:59:52;101305.47;;;8.44;71.62
22830;BME280;11581;51.250;6.778;2022-12-07T03:02:28;101299.19;;;8.45;71.85
22830;BME280;11581;51.250;6.778;2022-12-07T03:05:07;101298.47;;;8.43;71.73
22830;BME280;11581;51.250;6.778;2022-12-07T03:07:43;101284.22;;;8.33;71.82
22830;BME280;11581;51.250;6.778;2022-12-07T03:10:19;101276.00;;;8.25;71.90
22830;BME280;11581;51.250;6.778;2022-12-07T03:12:55;101301.13;;;8.43;71.66
22830;BME280;11581;51.250;6.778;2022-12-07T03:15:32;101285.78;;;8.35;71.57
22830;BME280;11581;51.250;6.778;2022-12-07T03:18:00;101309.94;;;8.43;71.77
22830;BME280;11581;51.250;6.778;2022-12-07T03:20:29;101308.25;;;8.42;71.57
22830;BME280;11581;51.250;6.778;2022-12-07T03:22:56;101308.38;;;8.41;71.79
22830;BME280;11581;51.250;6.778;2022-12-07T03:25:24;101315.63;;;8.39;71.68
22830;BME280;11581;51.250;6.778;2022-12-07T03:27:55;101294.25;;;8.29;71.73
22830;BME280;11581;51.250;6.778;2022-12-07T03:30:29;101298.69;;;8.29;72.10
22830;BME280;11581;51.250;6.778;2022-12-07T03:33:00;101288.19;;;8.27;71.94
22830;BME280;11581;51.250;6.778;2022-12-07T03:35:32;101300.88;;;8.35;71.73
22830;BME280;11581;51.250;6.778;2022-12-07T03:38:06;101297.41;;;8.34;71.96
22830;BME280;11581;51.250;6.778;2022-12-07T03:40:40;101289.78;;;8.30;71.98
22830;BME280;11581;51.250;6.778;2022-12-07T03:43:08;101299.06;;;8.35;71.91
22830;BME280;11581;51.250;6.778;2022-12-07T03:45:39;101301.84;;;8.34;71.80
22830;BME280;11581;51.250;6.778;2022-12-07T03:48:13;101301.84;;;8.34;71.79
22830;BME280;11581;51.250;6.778;2022-12-07T03:50:51;101299.19;;;8.34;71.78
22830;BME280;11581;51.250;6.778;2022-12-07T03:53:22;101245.75;;;8.04;71.88
22830;BME280;11581;51.250;6.778;2022-12-07T03:55:52;101302.56;;;8.36;71.74
22830;BME280;11581;51.250;6.778;2022-12-07T03:58:21;101243.09;;;7.93;71.78
22830;BME280;11581;51.250;6.778;2022-12-07T04:00:51;101284.69;;;8.27;71.79
22830;BME280;11581;51.250;6.778;2022-12-07T04:03:19;101300.16;;;8.33;71.44
22830;BME280;11581;51.250;6.778;2022-12-07T04:05:47;101301.13;;;8.32;71.51
22830;BME280;11581;51.250;6.778;2022-12-07T04:08:13;101298.69;;;8.29;71.42
22830;BME280;11581;51.250;6.778;2022-12-07T04:10:40;101299.78;;;8.26;71.61
22830;BME280;11581;51.250;6.778;2022-12-07T04:13:07;101281.97;;;8.16;71.44
22830;BME280;11581;51.250;6.778;2022-12-07T04:15:33;101304.47;;;8.23;71.52
22830;BME280;11581;51.250;6.778;2022-12-07T04:18:01;101297.56;;;8.20;71.47
22830;BME280;11581;51.250;6.778;2022-12-07T04:20:28;101311.72;;;8.21;71.51
22830;BME280;11581;51.250;6.778;2022-12-07T04:22:55;101303.00;;;8.19;71.96
22830;BME280;11581;51.250;6.778;2022-12-07T04:25:22;101300.34;;;8.19;72.05
22830;BME280;11581;51.250;6.778;2022-12-07T04:27:48;101294.09;;;8.20;71.90
22830;BME280;11581;51.250;6.778;2022-12-07T04:30:15;101294.09;;;8.20;72.13
22830;BME280;11581;51.250;6.778;2022-12-07T04:32:42;101254.16;;;7.87;72.10
22830;BME280;11581;51.250;6.778;2022-12-07T04:35:11;101287.91;;;8.19;71.72
22830;BME280;11581;51.250;6.778;2022-12-07T04:37:38;101281.00;;;8.06;71.78
22830;BME280;11581;51.250;6.778;2022-12-07T04:40:07;101300.22;;;8.20;71.70
22830;BME280;11581;51.250;6.778;2022-12-07T04:42:36;101294.09;;;8.20;71.67
22830;BME280;11581;51.250;6.778;2022-12-07T04:45:04;101188.38;;;7.57;71.79
22830;BME280;11581;51.250;6.778;2022-12-07T04:47:31;101289.72;;;8.19;71.83
22830;BME280;11581;51.250;6.778;2022-12-07T04:49:58;101283.59;;;8.18;71.73
22830;BME280;11581;51.250;6.778;2022-12-07T04:52:26;101277.41;;;8.18;71.77
22830;BME280;11581;51.250;6.778;2022-12-07T04:54:53;101257.84;;;8.08;71.54
22830;BME280;11581;51.250;6.778;2022-12-07T04:57:20;101006.19;;;6.55;71.18
22830;BME280;11581;51.250;6.778;2022-12-07T04:59:46;101273.31;;;8.14;71.60
22830;BME280;11581;51.250;6.778;2022-12-07T05:02:13;101280.53;;;8.12;71.38
22830;BME280;11581;51.250;6.778;2022-12-07T05:04:40;101258.66;;;7.97;71.46
22830;BME280;11581;51.250;6.778;2022-12-07T05:07:07;101279.09;;;8.08;71.48
22830;BME280;11581;51.250;6.778;2022-12-07T05:09:35;101283.53;;;8.07;71.50
22830;BME280;11581;51.250;6.778;2022-12-07T05:12:02;101231.59;;;7.70;71.67
22830;BME280;11581;51.250;6.778;2022-12-07T05:14:29;101244.63;;;7.84;71.46
22830;BME280;11581;51.250;6.778;2022-12-07T05:16:56;101282.97;;;8.04;71.68
22830;BME280;11581;51.250;6.778;2022-12-07T05:19:22;101292.72;;;8.03;71.62
22830;BME280;11581;51.250;6.778;2022-12-07T05:21:49;101296.25;;;8.04;71.75
22830;BME280;11581;51.250;6.778;2022-12-07T05:24:18;101297.19;;;8.03;71.57
22830;BME280;11581;51.250;6.778;2022-12-07T05:26:46;101299.00;;;8.02;71.79
22830;BME280;11581;51.250;6.778;2022-12-07T05:29:14;101291.88;;;8.03;71.69
22830;BME280;11581;51.250;6.778;2022-12-07T05:31:41;101280.38;;;7.91;71.51
22830;BME280;11581;51.250;6.778;2022-12-07T05:34:09;101288.28;;;8.04;71.49
22830;BME280;11581;51.250;6.778;2022-12-07T05:36:37;101277.25;;;7.97;71.72
22830;BME280;11581;51.250;6.778;2022-12-07T05:39:04;101283.78;;;8.04;71.76
22830;BME280;11581;51.250;6.778;2022-12-07T05:41:31;101277.53;;;8.05;71.70
22830;BME280;11581;51.250;6.778;2022-12-07T05:44:16;101288.00;;;8.07;71.33
22830;BME280;11581;51.250;6.778;2022-12-07T05:46:43;101270.84;;;8.00;71.23
22830;BME280;11581;51.250;6.778;2022-12-07T05:49:10;101260.47;;;7.97;71.40
22830;BME280;11581;51.250;6.778;2022-12-07T05:51:37;101281.00;;;8.06;71.50
22830;BME280;11581;51.250;6.778;2022-12-07T05:54:04;101281.00;;;8.06;71.47
22830;BME280;11581;51.250;6.778;2022-12-07T05:56:34;101202.22;;;7.61;71.35
22830;BME280;11581;51.250;6.778;2022-12-07T05:59:01;101284.63;;;8.05;71.34
22830;BME280;11581;51.250;6.778;2022-12-07T06:01:47;101261.31;;;7.97;71.37
22830;BME280;11581;51.250;6.778;2022-12-07T06:04:14;101285.50;;;8.05;71.53
22830;BME280;11581;51.250;6.778;2022-12-07T06:06:40;101278.34;;;8.06;71.39
22830;BME280;11581;51.250;6.778;2022-12-07T06:09:07;101222.66;;;7.71;71.43
22830;BME280;11581;51.250;6.778;2022-12-07T06:11:34;101220.13;;;7.70;71.42
22830;BME280;11581;51.250;6.778;2022-12-07T06:14:18;101280.78;;;8.09;71.56
22830;BME280;11581;51.250;6.778;2022-12-07T06:16:47;101088.59;;;6.98;71.42
22830;BME280;11581;51.250;6.778;2022-12-07T06:19:14;101282.34;;;8.11;71.50
22830;BME280;11581;51.250;6.778;2022-12-07T06:21:41;101267.13;;;8.02;71.42
22830;BME280;11581;51.250;6.778;2022-12-07T06:24:09;101291.16;;;8.12;71.38
22830;BME280;11581;51.250;6.778;2022-12-07T06:26:36;101240.19;;;7.85;71.31
22830;BME280;11581;51.250;6.778;2022-12-07T06:29:03;101289.25;;;8.14;71.59
22830;BME280;11581;51.250;6.778;2022-12-07T06:31:32;101290.06;;;8.14;71.44
22830;BME280;11581;51.250;6.778;2022-12-07T06:34:03;101283.69;;;8.17;71.29
22830;BME280;11581;51.250;6.778;2022-12-07T06:36:30;101273.53;;;8.11;71.36
22830;BME280;11581;51.250;6.778;2022-12-07T06:38:57;101289.84;;;8.17;71.28
22830;BME280;11581;51.250;6.778;2022-12-07T06:41:24;101252.50;;;7.97;71.34
22830;BME280;11581;51.250;6.778;2022-12-07T06:43:51;101257.69;;;7.98;71.00
22830;BME280;11581;51.250;6.778;2022-12-07T06:46:17;101292.59;;;8.16;71.38
22830;BME280;11581;51.250;6.778;2022-12-07T06:48:45;101263.84;;;7.99;71.27
22830;BME280;11581;51.250;6.778;2022-12-07T06:51:13;101291.91;;;8.14;70.99
22830;BME280;11581;51.250;6.778;2022-12-07T06:53:40;101294.56;;;8.14;71.08
22830;BME280;11581;51.250;6.778;2022-12-07T06:56:07;101286.59;;;8.14;71.20
22830;BME280;11581;51.250;6.778;2022-12-07T06:58:34;101295.50;;;8.13;71.04
22830;BME280;11581;51.250;6.778;2022-12-07T07:01:01;101299.88;;;8.14;71.37
22830;BME280;11581;51.250;6.778;2022-12-07T07:03:28;101294.78;;;8.11;71.13
22830;BME280;11581;51.250;6.778;2022-12-07T07:05:55;101188.22;;;7.48;71.03
22830;BME280;11581;51.250;6.778;2022-12-07T07:08:25;101265.78;;;7.97;70.87
22830;BME280;11581;51.250;6.778;2022-12-07T07:10:52;101225.19;;;7.73;71.21
22830;BME280;11581;51.250;6.778;2022-12-07T07:13:19;101158.50;;;7.32;70.90
22830;BME280;11581;51.250;6.778;2022-12-07T07:15:46;101237.50;;;7.74;70.98
22830;BME280;11581;51.250;6.778;2022-12-07T07:18:13;101228.81;;;7.72;71.06
22830;BME280;11581;51.250;6.778;2022-12-07T07:20:39;101267.72;;;7.95;71.05
22830;BME280;11581;51.250;6.778;2022-12-07T07:23:06;101289.09;;;8.04;70.76
22830;BME280;11581;51.250;6.778;2022-12-07T07:25:36;101291.03;;;8.02;70.94
22830;BME280;11581;51.250;6.778;2022-12-07T07:28:03;101295.50;;;8.02;71.22
22830;BME280;11581;51.250;6.778;2022-12-07T07:30:30;101195.69;;;7.43;71.13
22830;BME280;11581;51.250;6.778;2022-12-07T07:32:57;101302.63;;;8.01;71.15
22830;BME280;11581;51.250;6.778;2022-12-07T07:35:25;101295.50;;;8.02;71.40
22830;BME280;11581;51.250;6.778;2022-12-07T07:37:51;101291.88;;;8.03;71.35
22830;BME280;11581;51.250;6.778;2022-12-07T07:40:18;101302.38;;;8.04;71.71
22830;BME280;11581;51.250;6.778;2022-12-07T07:42:50;101280.25;;;7.93;71.47
22830;BME280;11581;51.250;6.778;2022-12-07T07:45:19;101305.78;;;8.06;71.37
22830;BME280;11581;51.250;6.778;2022-12-07T07:47:46;101304.91;;;8.06;71.07
22830;BME280;11581;51.250;6.778;2022-12-07T07:50:13;101243.75;;;7.62;70.69
22830;BME280;11581;51.250;6.778;2022-12-07T07:52:40;101302.38;;;8.04;70.50
22830;BME280;11581;51.250;6.778;2022-12-07T07:55:07;101301.78;;;8.01;70.46
22830;BME280;11581;51.250;6.778;2022-12-07T07:57:34;101289.66;;;7.86;70.53
22830;BME280;11581;51.250;6.778;2022-12-07T08:00:05;101311.16;;;7.94;70.42
22830;BME280;11581;51.250;6.778;2022-12-07T08:02:38;101321.19;;;7.90;70.44
22830;BME280;11581;51.250;6.778;2022-12-07T08:05:06;101309.22;;;7.85;70.19
22830;BME280;11581;51.250;6.778;2022-12-07T08:07:34;101310.53;;;7.79;70.17
22830;BME280;11581;51.250;6.778;2022-12-07T08:10:03;101313.44;;;7.76;70.39
22830;BME280;11581;51.250;6.778;2022-12-07T08:12:30;101282.44;;;7.53;70.75
22830;BME280;11581;51.250;6.778;2022-12-07T08:14:57;101306.63;;;7.61;71.31
22830;BME280;11581;51.250;6.778;2022-12-07T08:17:25;101310.63;;;7.67;71.91
22830;BME280;11581;51.250;6.778;2022-12-07T08:19:53;101322.97;;;7.79;72.58
22830;BME280;11581;51.250;6.778;2022-12-07T08:22:19;101313.91;;;7.81;72.70
22830;BME280;11581;51.250;6.778;2022-12-07T08:24:48;101329.53;;;7.97;72.97
22830;BME280;11581;51.250;6.778;2022-12-07T08:27:14;101329.44;;;8.09;73.36
22830;BME280;11581;51.250;6.778;2022-12-07T08:29:41;101279.41;;;7.92;73.11
22830;BME280;11581;51.250;6.778;2022-12-07T08:32:09;101314.16;;;8.24;72.81
22830;BME280;11581;51.250;6.778;2022-12-07T08:34:37;101334.09;;;8.40;72.16
22830;BME280;11581;51.250;6.778;2022-12-07T08:37:05;101288.31;;;8.26;71.86
22830;BME280;11581;51.250;6.778;2022-12-07T08:39:32;101326.63;;;8.67;71.51
22830;BME280;11581;51.250;6.778;2022-12-07T08:42:01;101326.03;;;8.75;71.37
22830;BME280;11581;51.250;6.778;2022-12-07T08:44:30;101329.88;;;8.82;71.20
22830;BME280;11581;51.250;6.778;2022-12-07T08:47:00;101318.75;;;8.88;70.74
22830;BME280;11581;51.250;6.778;2022-12-07T08:49:32;101303.28;;;8.82;70.05
22830;BME280;11581;51.250;6.778;2022-12-07T08:52:04;101257.13;;;8.61;69.76
22830;BME280;11581;51.250;6.778;2022-12-07T08:54:33;101330.94;;;9.01;69.79
22830;BME280;11581;51.250;6.778;2022-12-07T08:57:01;101322.81;;;9.03;69.86
22830;BME280;11581;51.250;6.778;2022-12-07T08:59:28;101177.19;;;8.20;69.74
22830;BME280;11581;51.250;6.778;2022-12-07T09:01:55;101210.75;;;8.21;69.43
22830;BME280;11581;51.250;6.778;2022-12-07T09:04:22;101325.25;;;9.06;69.31
22830;BME280;11581;51.250;6.778;2022-12-07T09:06:49;101316.44;;;9.05;69.38
22830;BME280;11581;51.250;6.778;2022-12-07T09:09:17;101316.44;;;9.05;69.89
22830;BME280;11581;51.250;6.778;2022-12-07T09:11:44;101317.88;;;9.09;70.25
22830;BME280;11581;51.250;6.778;2022-12-07T09:14:11;101306.13;;;9.12;71.01
22830;BME280;11581;51.250;6.778;2022-12-07T09:16:39;101297.69;;;9.07;71.05
22830;BME280;11581;51.250;6.778;2022-12-07T09:19:08;101321.78;;;9.37;70.55
22830;BME280;11581;51.250;6.778;2022-12-07T09:21:35;101325.84;;;9.52;71.12
22830;BME280;11581;51.250;6.778;2022-12-07T09:24:02;101274.44;;;9.41;71.11
22830;BME280;11581;51.250;6.778;2022-12-07T09:26:30;101319.91;;;9.80;70.77
22830;BME280;11581;51.250;6.778;2022-12-07T09:28:58;101320.16;;;9.98;70.94
22830;BME280;11581;51.250;6.778;2022-12-07T09:31:25;101317.91;;;10.14;70.40
22830;BME280;11581;51.250;6.778;2022-12-07T09:33:58;101320.22;;;10.28;68.61
22830;BME280;11581;51.250;6.778;2022-12-07T09:36:26;101265.25;;;10.06;69.09
22830;BME280;11581;51.250;6.778;2022-12-07T09:38:55;101326.25;;;10.50;68.45
22830;BME280;11581;51.250;6.778;2022-12-07T09:41:23;101327.69;;;10.54;67.83
22830;BME280;11581;51.250;6.778;2022-12-07T09:44:02;101257.47;;;10.14;66.40
22830;BME280;11581;51.250;6.778;2022-12-07T09:46:34;101314.34;;;10.54;66.21
22830;BME280;11581;51.250;6.778;2022-12-07T09:49:02;101321.09;;;10.58;67.47
22830;BME280;11581;51.250;6.778;2022-12-07T09:51:29;101335.34;;;10.68;67.37
22830;BME280;11581;51.250;6.778;2022-12-07T09:53:57;101296.53;;;10.55;66.57
22830;BME280;11581;51.250;6.778;2022-12-07T09:56:25;101322.44;;;10.73;67.00
22830;BME280;11581;51.250;6.778;2022-12-07T09:58:59;101324.81;;;10.76;65.83
22830;BME280;11581;51.250;6.778;2022-12-07T10:01:28;101323.84;;;10.77;66.59
22830;BME280;11581;51.250;6.778;2022-12-07T10:04:05;101290.53;;;10.62;65.21
22830;BME280;11581;51.250;6.778;2022-12-07T10:06:35;101238.03;;;10.33;66.36
22830;BME280;11581;51.250;6.778;2022-12-07T10:09:02;101309.53;;;10.78;65.96
22830;BME280;11581;51.250;6.778;2022-12-07T10:11:29;101281.09;;;10.58;66.06
22830;BME280;11581;51.250;6.778;2022-12-07T10:14:12;101309.09;;;10.73;64.86
22830;BME280;11581;51.250;6.778;2022-12-07T10:16:40;101315.41;;;10.72;66.27
22830;BME280;11581;51.250;6.778;2022-12-07T10:19:19;101281.38;;;10.55;64.57
22830;BME280;11581;51.250;6.778;2022-12-07T10:22:03;101302.75;;;10.74;65.10
22830;BME280;11581;51.250;6.778;2022-12-07T10:24:31;101300.81;;;10.76;66.51
22830;BME280;11581;51.250;6.778;2022-12-07T10:26:58;101300.53;;;10.79;66.76
22830;BME280;11581;51.250;6.778;2022-12-07T10:29:29;101301.97;;;10.83;65.90
22830;BME280;11581;51.250;6.778;2022-12-07T10:31:58;101275.81;;;10.77;66.55
22830;BME280;11581;51.250;6.778;2022-12-07T10:34:26;101235.72;;;10.58;66.43
22830;BME280;11581;51.250;6.778;2022-12-07T10:37:07;101290.59;;;11.00;64.53
22830;BME280;11581;51.250;6.778;2022-12-07T10:39:41;101292.06;;;11.04;65.74
22830;BME280;11581;51.250;6.778;2022-12-07T10:42:16;101287.41;;;11.06;64.58
22830;BME280;11581;51.250;6.778;2022-12-07T10:44:44;101288.84;;;11.10;65.25
22830;BME280;11581;51.250;6.778;2022-12-07T10:47:20;101279.84;;;11.11;64.12
22830;BME280;11581;51.250;6.778;2022-12-07T10:50:06;101284.03;;;11.14;64.00
22830;BME280;11581;51.250;6.778;2022-12-07T10:55:41;101277.31;;;11.19;64.32
22830;BME280;11581;51.250;6.778;2022-12-07T10:58:24;101188.88;;;10.75;64.27
22830;BME280;11581;51.250;6.778;2022-12-07T11:01:04;101264.13;;;11.27;63.74
22830;BME280;11581;51.250;6.778;2022-12-07T11:03:45;101227.69;;;11.17;63.85
22830;BME280;11581;51.250;6.778;2022-12-07T11:06:25;101256.94;;;11.38;63.44
22830;BME280;11581;51.250;6.778;2022-12-07T11:09:28;101252.03;;;11.43;62.88
22830;BME280;11581;51.250;6.778;2022-12-07T11:12:07;101244.44;;;11.48;63.23
22830;BME280;11581;51.250;6.778;2022-12-07T11:14:41;101259.91;;;11.54;63.40
22830;BME280;11581;51.250;6.778;2022-12-07T11:17:17;101243.06;;;11.63;64.03
22830;BME280;11581;51.250;6.778;2022-12-07T11:19:55;101246.94;;;11.78;63.88
22830;BME280;11581;51.250;6.778;2022-12-07T11:22:35;101245.34;;;12.04;64.21
22830;BME280;11581;51.250;6.778;2022-12-07T11:25:17;101242.44;;;12.34;63.17
22830;BME280;11581;51.250;6.778;2022-12-07T11:27:48;101224.72;;;12.60;64.24
22830;BME280;11581;51.250;6.778;2022-12-07T11:30:19;101237.31;;;12.94;64.34
22830;BME280;11581;51.250;6.778;2022-12-07T11:33:05;101213.03;;;13.23;62.87
22830;BME280;11581;51.250;6.778;2022-12-07T11:35:44;101205.50;;;13.62;62.89
22830;BME280;11581;51.250;6.778;2022-12-07T11:38:15;101230.47;;;14.13;62.15
22830;BME280;11581;51.250;6.778;2022-12-07T11:40:46;101228.16;;;14.44;60.41
22830;BME280;11581;51.250;6.778;2022-12-07T11:43:21;101224.25;;;14.64;58.24
22830;BME280;11581;51.250;6.778;2022-12-07T11:45:56;101220.25;;;14.76;57.44
22830;BME280;11581;51.250;6.778;2022-12-07T11:48:31;101190.84;;;14.66;55.71
22830;BME280;11581;51.250;6.778;2022-12-07T11:51:01;101217.59;;;14.84;57.83
22830;BME280;11581;51.250;6.778;2022-12-07T11:53:35;101199.09;;;14.73;56.52
22830;BME280;11581;51.250;6.778;2022-12-07T11:56:08;101208.69;;;14.83;56.25
22830;BME280;11581;51.250;6.778;2022-12-07T11:58:45;101199.44;;;14.78;54.58
22830;BME280;11581;51.250;6.778;2022-12-07T12:01:25;101186.16;;;14.68;54.26
22830;BME280;11581;51.250;6.778;2022-12-07T12:03:58;101144.09;;;14.35;54.21
22830;BME280;11581;51.250;6.778;2022-12-07T12:06:27;101201.06;;;14.63;56.87
22830;BME280;11581;51.250;6.778;2022-12-07T12:08:59;101219.31;;;14.51;55.88
22830;BME280;11581;51.250;6.778;2022-12-07T12:11:39;101195.56;;;14.31;54.71
22830;BME280;11581;51.250;6.778;2022-12-07T12:14:29;101199.00;;;14.15;54.58
22830;BME280;11581;51.250;6.778;2022-12-07T12:17:17;101201.81;;;14.06;54.44
22830;BME280;11581;51.250;6.778;2022-12-07T12:20:00;101205.59;;;13.95;54.75
22830;BME280;11581;51.250;6.778;2022-12-07T12:22:34;101136.72;;;13.44;54.84
22830;BME280;11581;51.250;6.778;2022-12-07T12:25:04;101191.19;;;13.71;56.81
22830;BME280;11581;51.250;6.778;2022-12-07T12:27:34;101191.41;;;13.60;56.91
22830;BME280;11581;51.250;6.778;2022-12-07T12:32:51;101188.09;;;13.40;57.51
22830;BME280;11581;51.250;6.778;2022-12-07T12:35:28;101182.81;;;13.30;55.42
22830;BME280;11581;51.250;6.778;2022-12-07T12:38:29;101181.19;;;13.20;55.44
22830;BME280;11581;51.250;6.778;2022-12-07T12:40:59;101159.31;;;13.07;57.71
22830;BME280;11581;51.250;6.778;2022-12-07T12:43:44;101168.66;;;13.03;55.32
22830;BME280;11581;51.250;6.778;2022-12-07T12:46:48;101146.00;;;12.80;55.77
22830;BME280;11581;51.250;6.778;2022-12-07T12:49:35;101165.44;;;12.82;55.92
22830;BME280;11581;51.250;6.778;2022-12-07T12:55:19;100996.16;;;11.56;58.00
22830;BME280;11581;51.250;6.778;2022-12-07T13:03:52;101163.88;;;12.35;59.60
22830;BME280;11581;51.250;6.778;2022-12-07T13:06:32;101152.69;;;12.22;58.67
22830;BME280;11581;51.250;6.778;2022-12-07T13:09:01;101149.78;;;12.15;60.01
22830;BME280;11581;51.250;6.778;2022-12-07T13:11:32;101065.03;;;11.62;58.82
22830;BME280;11581;51.250;6.778;2022-12-07T13:20:48;101159.13;;;12.02;57.92
22830;BME280;11581;51.250;6.778;2022-12-07T13:23:18;101103.97;;;11.64;58.98
22830;BME280;11581;51.250;6.778;2022-12-07T13:25:51;101151.56;;;11.88;58.38
22830;BME280;11581;51.250;6.778;2022-12-07T13:28:22;101170.88;;;11.82;59.39
22830;BME280;11581;51.250;6.778;2022-12-07T13:31:11;101131.66;;;11.63;58.13
22830;BME280;11581;51.250;6.778;2022-12-07T13:33:43;101138.97;;;11.71;59.31
22830;BME280;11581;51.250;6.778;2022-12-07T13:36:18;101135.19;;;11.64;58.49
22830;BME280;11581;51.250;6.778;2022-12-07T13:38:55;101075.25;;;11.20;58.63